createdAt,value
2023-05-14T00:00:28.908Z,15.72
2023-05-14T00:03:17.908Z,15.67
2023-05-14T00:05:47.129Z,15.67
2023-05-14T00:08:16.141Z,15.68
2023-05-14T00:10:45.360Z,15.75
2023-05-14T00:13:14.437Z,15.81
2023-05-14T00:15:43.569Z,15.78
2023-05-14T00:18:12.789Z,15.70
2023-05-14T00:20:42.269Z,15.67
2023-05-14T00:23:11.173Z,15.72
2023-05-14T00:25:40.592Z,15.69
2023-05-14T00:28:10.583Z,15.75
2023-05-14T00:30:40.529Z,15.76
2023-05-14T00:33:09.779Z,15.76
2023-05-14T00:35:38.730Z,15.82
2023-05-14T00:38:08.070Z,15.87
2023-05-14T00:40:37.486Z,15.85
2023-05-14T00:43:06.975Z,15.81
2023-05-14T00:45:36.006Z,15.80
2023-05-14T00:48:06.436Z,15.80
2023-05-14T00:50:35.229Z,15.77
2023-05-14T00:53:10.471Z,15.73
2023-05-14T00:55:40.102Z,15.66
2023-05-14T00:58:14.316Z,15.68
2023-05-14T01:00:43.492Z,15.69
2023-05-14T01:03:12.438Z,15.65
2023-05-14T01:06:01.593Z,15.62
2023-05-14T01:08:58.684Z,15.64
2023-05-14T01:11:51.734Z,15.60
2023-05-14T01:14:39.871Z,15.53
2023-05-14T01:17:12.125Z,15.47
2023-05-14T01:19:43.418Z,15.50
2023-05-14T01:22:13.555Z,15.53
2023-05-14T01:24:42.320Z,15.51
2023-05-14T01:27:54.926Z,15.48
2023-05-14T01:30:36.669Z,15.40
2023-05-14T01:33:12.876Z,15.43
2023-05-14T01:35:42.278Z,15.39
2023-05-14T01:38:17.716Z,15.38
2023-05-14T01:40:48.745Z,15.31
2023-05-14T01:43:18.376Z,15.32
2023-05-14T01:45:47.728Z,15.39
2023-05-14T01:48:16.766Z,15.40
2023-05-14T01:50:46.108Z,15.43
2023-05-14T01:53:15.129Z,15.49
2023-05-14T01:55:44.382Z,15.55
2023-05-14T01:58:14.042Z,15.58
2023-05-14T02:00:43.603Z,15.57
2023-05-14T02:03:12.705Z,15.58
2023-05-14T02:05:41.876Z,15.65
2023-05-14T02:08:11.495Z,15.68
2023-05-14T02:10:40.819Z,15.67
2023-05-14T02:13:10.347Z,15.62
2023-05-14T02:15:39.650Z,15.63
2023-05-14T02:18:08.626Z,15.64
2023-05-14T02:20:38.185Z,15.63
2023-05-14T02:23:07.361Z,15.62
2023-05-14T02:25:36.657Z,15.63
2023-05-14T02:28:06.080Z,15.62
2023-05-14T02:30:35.370Z,15.58
2023-05-14T02:33:04.730Z,15.53
2023-05-14T02:35:34.243Z,15.51
2023-05-14T02:38:03.792Z,15.50
2023-05-14T02:40:32.838Z,15.48
2023-05-14T02:43:02.354Z,15.44
2023-05-14T02:45:31.278Z,15.40
2023-05-14T02:48:00.930Z,15.41
2023-05-14T02:50:30.260Z,15.43
2023-05-14T02:52:59.309Z,15.44
2023-05-14T02:55:28.408Z,15.42
2023-05-14T02:57:57.778Z,15.40
2023-05-14T03:00:26.647Z,15.44
2023-05-14T03:02:56.169Z,15.46
2023-05-14T03:05:25.821Z,15.42
2023-05-14T03:07:54.653Z,15.39
2023-05-14T03:10:24.073Z,15.38
2023-05-14T03:12:53.915Z,15.40
2023-05-14T03:15:23.237Z,15.39
2023-05-14T03:17:52.117Z,15.36
2023-05-14T03:20:21.304Z,15.34
2023-05-14T03:22:50.651Z,15.37
2023-05-14T03:25:19.846Z,15.38
2023-05-14T03:27:48.738Z,15.30
2023-05-14T03:30:17.761Z,15.27
2023-05-14T03:32:46.938Z,15.25
2023-05-14T03:35:16.005Z,15.24
2023-05-14T03:37:45.202Z,15.25
2023-05-14T03:40:14.142Z,15.23
2023-05-14T03:42:43.744Z,15.23
2023-05-14T03:45:13.745Z,15.26
2023-05-14T03:47:42.914Z,15.28
2023-05-14T03:50:12.354Z,15.28
2023-05-14T03:52:41.919Z,15.25
2023-05-14T03:55:11.466Z,15.26
2023-05-14T03:57:41.555Z,15.28
2023-05-14T04:00:12.047Z,15.28
2023-05-14T04:02:41.518Z,15.24
2023-05-14T04:05:10.848Z,15.26
2023-05-14T04:07:40.275Z,15.29
2023-05-14T04:10:09.675Z,15.32
2023-05-14T04:12:39.487Z,15.31
2023-05-14T04:15:09.622Z,15.31
2023-05-14T04:17:38.758Z,15.33
2023-05-14T04:20:08.691Z,15.32
2023-05-14T04:22:38.337Z,15.34
2023-05-14T04:25:07.633Z,15.38
2023-05-14T04:27:36.432Z,15.45
2023-05-14T04:30:05.794Z,15.50
2023-05-14T04:32:34.867Z,15.50
2023-05-14T04:35:04.887Z,15.47
2023-05-14T04:37:34.072Z,15.49
2023-05-14T04:40:03.353Z,15.54
2023-05-14T04:42:32.750Z,15.62
2023-05-14T04:45:01.810Z,15.65
2023-05-14T04:47:31.479Z,15.65
2023-05-14T04:50:00.646Z,15.66
2023-05-14T04:52:30.172Z,15.71
2023-05-14T04:54:59.732Z,15.78
2023-05-14T04:57:29.193Z,15.80
2023-05-14T04:59:58.510Z,15.80
2023-05-14T05:02:27.706Z,15.83
2023-05-14T05:04:56.985Z,15.89
2023-05-14T05:07:26.064Z,15.94
2023-05-14T05:09:55.548Z,15.96
2023-05-14T05:12:24.889Z,15.96
2023-05-14T05:14:53.760Z,15.98
2023-05-14T05:17:22.998Z,16.06
2023-05-14T05:19:51.846Z,16.16
2023-05-14T05:22:21.670Z,16.19
2023-05-14T05:24:51.138Z,16.16
2023-05-14T05:27:22.441Z,16.13
2023-05-14T05:29:51.630Z,16.19
2023-05-14T05:32:20.939Z,16.27
2023-05-14T05:34:52.786Z,16.34
2023-05-14T05:37:22.866Z,16.42
2023-05-14T05:39:52.237Z,16.51
2023-05-14T05:42:21.181Z,16.59
2023-05-14T05:44:50.694Z,16.73
2023-05-14T05:47:20.024Z,16.84
2023-05-14T05:49:50.244Z,16.91
2023-05-14T05:52:19.844Z,16.92
2023-05-14T05:54:49.299Z,16.92
2023-05-14T05:57:18.821Z,16.89
2023-05-14T05:59:48.622Z,16.86
2023-05-14T06:02:17.914Z,16.91
2023-05-14T06:04:47.437Z,17.00
2023-05-14T06:07:16.614Z,17.07
2023-05-14T06:09:45.686Z,17.17
2023-05-14T06:12:14.694Z,17.39
2023-05-14T06:14:43.774Z,17.64
2023-05-14T06:17:15.531Z,17.82
2023-05-14T06:19:45.239Z,17.95
2023-05-14T06:22:15.458Z,17.99
2023-05-14T06:24:44.516Z,17.98
2023-05-14T06:27:13.723Z,18.05
2023-05-14T06:29:43.212Z,18.03
2023-05-14T06:32:16.164Z,18.00
2023-05-14T06:34:45.250Z,17.94
2023-05-14T06:37:14.255Z,17.90
2023-05-14T06:39:50.455Z,17.87
2023-05-14T06:42:19.742Z,17.90
2023-05-14T06:44:49.002Z,18.03
2023-05-14T06:47:18.221Z,18.16
2023-05-14T06:49:47.743Z,18.33
2023-05-14T06:52:16.945Z,18.33
2023-05-14T06:54:45.998Z,18.37
2023-05-14T06:57:15.556Z,18.38
2023-05-14T06:59:45.156Z,18.46
2023-05-14T07:02:14.973Z,18.48
2023-05-14T07:04:44.575Z,18.55
2023-05-14T07:07:16.016Z,18.61
2023-05-14T07:09:45.430Z,18.61
2023-05-14T07:12:14.948Z,18.65
2023-05-14T07:14:44.092Z,18.65
2023-05-14T07:17:14.094Z,18.65
2023-05-14T07:19:44.046Z,18.71
2023-05-14T07:22:14.357Z,18.76
2023-05-14T07:24:43.629Z,18.82
2023-05-14T07:27:13.259Z,18.87
2023-05-14T07:29:43.066Z,18.87
2023-05-14T07:32:15.339Z,18.81
2023-05-14T07:34:46.014Z,18.80
2023-05-14T07:37:15.642Z,18.82
2023-05-14T07:39:46.854Z,18.89
2023-05-14T07:42:31.638Z,19.06
2023-05-14T07:45:05.450Z,19.16
2023-05-14T07:47:35.642Z,19.36
2023-05-14T07:50:05.563Z,19.46
2023-05-14T07:52:35.462Z,19.49
2023-05-14T07:55:05.283Z,19.52
2023-05-14T07:57:34.123Z,19.54
2023-05-14T08:00:04.393Z,19.63
2023-05-14T08:02:33.451Z,19.80
2023-05-14T08:05:03.743Z,19.94
2023-05-14T08:07:34.674Z,20.03
2023-05-14T08:10:05.178Z,20.00
2023-05-14T08:12:35.101Z,19.96
2023-05-14T08:15:05.240Z,19.93
2023-05-14T08:17:34.654Z,20.14
2023-05-14T08:20:07.492Z,20.38
2023-05-14T08:22:37.408Z,20.81
2023-05-14T08:25:07.061Z,21.08
2023-05-14T08:27:36.982Z,21.41
2023-05-14T08:30:07.411Z,21.58
2023-05-14T08:32:39.002Z,21.88
2023-05-14T08:35:09.396Z,22.28
2023-05-14T08:37:39.156Z,23.15
2023-05-14T08:40:09.696Z,24.28
2023-05-14T08:42:43.803Z,24.42
2023-05-14T08:45:20.688Z,24.96
2023-05-14T08:47:52.168Z,25.56
2023-05-14T08:50:23.796Z,25.54
2023-05-14T08:52:54.207Z,25.30
2023-05-14T08:55:23.440Z,24.99
2023-05-14T08:57:53.397Z,24.93
2023-05-14T09:00:24.865Z,25.40
2023-05-14T09:02:57.389Z,25.97
2023-05-14T09:05:28.032Z,26.99
2023-05-14T09:07:59.005Z,27.26
2023-05-14T09:10:31.440Z,26.99
2023-05-14T09:13:00.786Z,26.77
2023-05-14T09:15:31.875Z,27.06
2023-05-14T09:18:01.324Z,27.14
2023-05-14T09:20:32.846Z,26.75
2023-05-14T09:23:02.803Z,26.52
2023-05-14T09:25:33.225Z,26.00
2023-05-14T09:28:08.118Z,25.87
2023-05-14T09:30:38.588Z,25.94
2023-05-14T09:33:11.118Z,26.18
2023-05-14T09:35:41.893Z,26.03
2023-05-14T09:38:12.183Z,25.82
2023-05-14T09:40:42.635Z,25.94
2023-05-14T09:43:13.265Z,26.22
2023-05-14T09:45:43.358Z,26.22
2023-05-14T09:48:12.732Z,26.30
2023-05-14T09:50:47.025Z,26.72
2023-05-14T09:53:16.261Z,27.24
2023-05-14T09:55:47.399Z,28.62
2023-05-14T09:58:17.052Z,29.21
2023-05-14T10:00:48.503Z,29.81
2023-05-14T10:03:20.897Z,29.82
2023-05-14T10:05:51.730Z,29.60
2023-05-14T10:08:28.169Z,29.44
2023-05-14T10:11:01.234Z,29.03
2023-05-14T10:13:41.044Z,28.92
2023-05-14T10:16:22.984Z,29.16
2023-05-14T10:18:58.078Z,29.46
2023-05-14T10:21:32.376Z,29.23
2023-05-14T10:24:02.526Z,28.75
2023-05-14T10:26:40.900Z,28.60
2023-05-14T10:29:12.383Z,28.05
2023-05-14T10:31:52.848Z,27.54
2023-05-14T10:34:39.081Z,26.94
2023-05-14T10:37:27.734Z,26.38
2023-05-14T10:40:02.840Z,26.14
2023-05-14T10:42:38.050Z,25.93
2023-05-14T10:45:10.749Z,25.64
2023-05-14T10:47:46.807Z,25.53
2023-05-14T10:50:18.272Z,25.44
2023-05-14T10:52:47.736Z,25.36
2023-05-14T10:55:17.858Z,25.05
2023-05-14T10:57:47.768Z,24.69
2023-05-14T11:00:17.466Z,24.55
2023-05-14T11:02:47.329Z,24.57
2023-05-14T11:05:20.509Z,24.52
2023-05-14T11:07:51.100Z,24.82
2023-05-14T11:10:26.409Z,26.17
2023-05-14T11:12:58.334Z,26.53
2023-05-14T11:15:29.277Z,26.24
2023-05-14T11:18:00.242Z,26.28
2023-05-14T11:20:29.633Z,26.75
2023-05-14T11:22:59.802Z,26.66
2023-05-14T11:25:30.047Z,26.73
2023-05-14T11:28:01.391Z,26.57
2023-05-14T11:30:32.757Z,26.42
2023-05-14T11:33:04.909Z,26.14
2023-05-14T11:35:34.910Z,25.87
2023-05-14T11:38:05.658Z,25.77
2023-05-14T11:40:35.921Z,26.06
2023-05-14T11:43:06.164Z,26.95
2023-05-14T11:45:37.135Z,27.88
2023-05-14T11:48:15.419Z,28.87
2023-05-14T11:50:53.229Z,29.46
2023-05-14T11:53:28.056Z,30.14
2023-05-14T11:56:00.546Z,30.13
2023-05-14T11:58:37.637Z,30.00
2023-05-14T12:01:08.517Z,29.76
2023-05-14T12:03:38.569Z,30.20
2023-05-14T12:06:09.385Z,30.64
2023-05-14T12:08:40.851Z,30.54
2023-05-14T12:11:11.346Z,30.29
2023-05-14T12:13:41.556Z,30.84
2023-05-14T12:16:14.589Z,30.59
2023-05-14T12:18:45.382Z,30.07
2023-05-14T12:21:16.814Z,29.95
2023-05-14T12:23:47.932Z,30.59
2023-05-14T12:26:17.447Z,30.72
2023-05-14T12:28:49.716Z,30.22
2023-05-14T12:31:20.039Z,30.31
2023-05-14T12:33:50.996Z,30.81
2023-05-14T12:36:22.443Z,31.16
2023-05-14T12:39:01.289Z,31.60
2023-05-14T12:41:34.739Z,30.76
2023-05-14T12:44:05.749Z,28.92
2023-05-14T12:46:35.373Z,27.61
2023-05-14T12:49:05.448Z,25.66
2023-05-14T12:51:35.458Z,25.06
2023-05-14T12:54:05.132Z,24.46
2023-05-14T12:56:34.510Z,24.04
2023-05-14T12:59:03.919Z,24.10
2023-05-14T13:01:33.738Z,24.17
2023-05-14T13:04:02.723Z,23.72
2023-05-14T13:06:32.755Z,23.78
2023-05-14T13:09:03.012Z,23.93
2023-05-14T13:11:32.547Z,23.64
2023-05-14T13:14:02.856Z,23.62
2023-05-14T13:16:33.212Z,23.13
2023-05-14T13:19:02.703Z,23.06
2023-05-14T13:21:32.773Z,22.82
2023-05-14T13:24:02.360Z,22.80
2023-05-14T13:26:32.328Z,22.83
2023-05-14T13:29:01.679Z,23.09
2023-05-14T13:31:30.558Z,22.98
2023-05-14T13:34:04.377Z,22.84
2023-05-14T13:36:34.394Z,22.84
2023-05-14T13:39:03.547Z,22.91
2023-05-14T13:41:35.566Z,22.66
2023-05-14T13:44:05.708Z,22.40
2023-05-14T13:46:35.239Z,22.38
2023-05-14T13:49:05.020Z,22.18
2023-05-14T13:51:36.786Z,22.08
2023-05-14T13:54:06.906Z,21.96
2023-05-14T13:56:39.043Z,21.92
2023-05-14T13:59:09.298Z,21.82
2023-05-14T14:01:40.374Z,21.95
2023-05-14T14:04:12.373Z,22.44
2023-05-14T14:06:42.271Z,23.03
2023-05-14T14:09:14.650Z,23.29
2023-05-14T14:11:45.879Z,23.28
2023-05-14T14:14:15.387Z,23.41
2023-05-14T14:16:45.261Z,23.95
2023-05-14T14:19:18.419Z,24.39
2023-05-14T14:24:24.652Z,24.32
2023-05-14T14:26:55.455Z,24.15
2023-05-14T14:29:24.860Z,24.16
2023-05-14T14:31:54.507Z,24.30
2023-05-14T14:34:24.960Z,24.27
2023-05-14T14:36:55.517Z,24.19
2023-05-14T14:39:27.450Z,23.94
2023-05-14T14:41:57.859Z,23.91
2023-05-14T14:44:28.219Z,23.94
2023-05-14T14:46:58.042Z,23.86
2023-05-14T14:49:29.174Z,23.83
2023-05-14T14:51:59.201Z,23.72
2023-05-14T14:54:29.068Z,23.59
2023-05-14T14:56:58.326Z,23.60
2023-05-14T14:59:27.766Z,23.67
2023-05-14T15:01:57.710Z,23.88
2023-05-14T15:04:27.591Z,23.78
2023-05-14T15:06:56.928Z,23.63
2023-05-14T15:09:26.428Z,23.47
2023-05-14T15:11:56.267Z,23.31
2023-05-14T15:14:26.505Z,23.17
2023-05-14T15:16:56.487Z,23.01
2023-05-14T15:19:26.478Z,23.21
2023-05-14T15:21:55.861Z,23.32
2023-05-14T15:24:27.200Z,23.41
2023-05-14T15:26:59.095Z,23.33
2023-05-14T15:29:30.094Z,23.38
2023-05-14T15:31:59.936Z,23.35
2023-05-14T15:34:30.807Z,23.30
2023-05-14T15:37:01.101Z,23.16
2023-05-14T15:39:32.037Z,23.09
2023-05-14T15:42:01.317Z,23.02
2023-05-14T15:44:30.816Z,22.96
2023-05-14T15:47:00.240Z,22.79
2023-05-14T15:49:30.373Z,22.60
2023-05-14T15:52:01.526Z,22.48
2023-05-14T15:54:31.485Z,22.36
2023-05-14T15:57:01.682Z,22.29
2023-05-14T15:59:31.258Z,22.36
2023-05-14T16:02:00.820Z,22.46
2023-05-14T16:04:30.382Z,22.46
2023-05-14T16:07:03.616Z,22.61
2023-05-14T16:09:36.130Z,22.68
2023-05-14T16:12:07.194Z,22.77
2023-05-14T16:14:36.749Z,22.85
2023-05-14T16:17:06.572Z,22.76
2023-05-14T16:19:35.979Z,22.49
2023-05-14T16:22:04.951Z,22.34
2023-05-14T16:24:34.342Z,22.21
2023-05-14T16:27:04.705Z,22.11
2023-05-14T16:29:35.284Z,22.05
2023-05-14T16:32:05.265Z,21.98
2023-05-14T16:34:35.895Z,21.92
2023-05-14T16:37:07.431Z,21.82
2023-05-14T16:39:37.221Z,21.79
2023-05-14T16:42:06.660Z,21.78
2023-05-14T16:44:36.471Z,21.83
2023-05-14T16:47:06.539Z,21.84
2023-05-14T16:49:36.903Z,21.82
2023-05-14T16:52:07.924Z,21.72
2023-05-14T16:54:38.079Z,21.69
2023-05-14T16:57:07.902Z,21.71
2023-05-14T16:59:38.459Z,21.66
2023-05-14T17:02:07.898Z,21.58
2023-05-14T17:04:39.354Z,21.50
2023-05-14T17:07:10.101Z,21.39
2023-05-14T17:09:39.887Z,21.26
2023-05-14T17:12:11.996Z,21.14
2023-05-14T17:14:42.502Z,21.01
2023-05-14T17:17:12.769Z,20.83
2023-05-14T17:19:43.459Z,20.64
2023-05-14T17:22:14.448Z,20.46
2023-05-14T17:24:44.389Z,20.30
2023-05-14T17:27:15.309Z,20.14
2023-05-14T17:29:46.906Z,20.00
2023-05-14T17:32:17.725Z,19.90
2023-05-14T17:34:47.660Z,19.79
2023-05-14T17:37:17.022Z,19.68
2023-05-14T17:39:47.688Z,19.63
2023-05-14T17:42:18.707Z,19.66
2023-05-14T17:44:50.652Z,19.69
2023-05-14T17:47:23.820Z,19.68
2023-05-14T17:49:54.138Z,19.67
2023-05-14T17:52:24.325Z,19.62
2023-05-14T17:54:54.633Z,19.55
2023-05-14T17:57:25.503Z,19.50
2023-05-14T17:59:55.552Z,19.32
2023-05-14T18:02:25.242Z,19.02
2023-05-14T18:04:54.955Z,18.45
2023-05-14T18:07:25.000Z,18.02
2023-05-14T18:09:54.665Z,17.93
2023-05-14T18:12:26.516Z,17.85
2023-05-14T18:14:56.097Z,17.74
2023-05-14T18:17:25.783Z,17.65
2023-05-14T18:19:54.884Z,17.64
2023-05-14T18:22:24.498Z,17.57
2023-05-14T18:24:53.645Z,17.51
2023-05-14T18:27:23.318Z,17.48
2023-05-14T18:29:54.114Z,17.44
2023-05-14T18:32:23.509Z,17.38
2023-05-14T18:34:52.515Z,17.20
2023-05-14T18:37:21.712Z,17.03
2023-05-14T18:39:51.560Z,16.90
2023-05-14T18:42:21.581Z,16.75
2023-05-14T18:44:51.942Z,16.56
2023-05-14T18:47:21.612Z,16.40
2023-05-14T18:49:55.673Z,16.11
2023-05-14T18:52:28.625Z,15.83
2023-05-14T18:54:58.725Z,15.59
2023-05-14T18:57:33.407Z,15.58
2023-05-14T19:00:04.770Z,15.53
2023-05-14T19:02:35.362Z,15.62
2023-05-14T19:05:04.966Z,15.81
2023-05-14T19:07:35.216Z,15.97
2023-05-14T19:10:05.520Z,16.12
2023-05-14T19:12:35.412Z,16.22
2023-05-14T19:15:05.128Z,16.18
2023-05-14T19:17:36.152Z,16.18
2023-05-14T19:20:08.846Z,16.25
2023-05-14T19:22:41.285Z,16.32
2023-05-14T19:25:12.645Z,16.29
2023-05-14T19:27:42.699Z,16.21
2023-05-14T19:30:13.008Z,16.21
2023-05-14T19:32:43.482Z,16.30
2023-05-14T19:35:13.040Z,16.36
2023-05-14T19:37:43.207Z,16.41
2023-05-14T19:40:13.825Z,16.46
2023-05-14T19:42:43.962Z,16.45
2023-05-14T19:45:13.502Z,16.48
2023-05-14T19:47:43.851Z,16.42
2023-05-14T19:50:13.900Z,16.36
2023-05-14T19:52:43.722Z,16.36
2023-05-14T19:55:13.436Z,16.36
2023-05-14T19:57:43.356Z,16.36
2023-05-14T20:00:13.752Z,16.41
2023-05-14T20:02:44.375Z,16.41
2023-05-14T20:05:15.678Z,16.35
2023-05-14T20:07:47.516Z,16.33
2023-05-14T20:10:18.312Z,16.35
2023-05-14T20:12:47.609Z,16.26
2023-05-14T20:15:17.706Z,16.18
2023-05-14T20:17:49.363Z,16.20
2023-05-14T20:20:20.369Z,16.19
2023-05-14T20:22:49.584Z,16.11
2023-05-14T20:25:19.168Z,15.97
2023-05-14T20:27:48.666Z,15.91
2023-05-14T20:30:18.027Z,15.97
2023-05-14T20:32:47.756Z,16.00
2023-05-14T20:35:18.468Z,15.94
2023-05-14T20:37:48.010Z,15.82
2023-05-14T20:40:18.433Z,15.66
2023-05-14T20:42:50.871Z,15.62
2023-05-14T20:45:21.118Z,15.64
2023-05-14T20:47:50.549Z,15.46
2023-05-14T20:50:20.830Z,15.24
2023-05-14T20:52:52.306Z,15.18
2023-05-14T20:55:23.017Z,15.20
2023-05-14T20:57:53.045Z,15.14
2023-05-14T21:00:23.470Z,15.08
2023-05-14T21:02:54.105Z,15.05
2023-05-14T21:05:26.161Z,15.05
2023-05-14T21:07:57.475Z,15.05
2023-05-14T21:10:27.783Z,15.01
2023-05-14T21:12:58.082Z,14.95
2023-05-14T21:15:27.865Z,14.91
2023-05-14T21:17:57.797Z,14.93
2023-05-14T21:20:27.614Z,14.92
2023-05-14T21:22:57.260Z,14.80
2023-05-14T21:25:26.599Z,14.72
2023-05-14T21:27:57.514Z,14.64
2023-05-14T21:30:27.119Z,14.56
2023-05-14T21:32:56.749Z,14.54
2023-05-14T21:35:26.443Z,14.50
2023-05-14T21:37:56.821Z,14.49
2023-05-14T21:40:26.872Z,14.50
2023-05-14T21:42:56.704Z,14.45
2023-05-14T21:45:26.972Z,14.37
2023-05-14T21:47:56.746Z,14.25
2023-05-14T21:50:26.156Z,14.18
2023-05-14T21:52:55.557Z,14.12
2023-05-14T21:55:24.949Z,14.12
2023-05-14T21:57:54.437Z,14.05
2023-05-14T22:00:26.341Z,14.11
2023-05-14T22:02:56.221Z,14.12
2023-05-14T22:05:26.756Z,14.13
2023-05-14T22:07:56.227Z,14.15
2023-05-14T22:10:25.469Z,14.13
2023-05-14T22:12:54.499Z,14.12
2023-05-14T22:15:23.991Z,14.15
2023-05-14T22:17:53.641Z,14.18
2023-05-14T22:20:23.056Z,14.18
2023-05-14T22:22:52.053Z,14.11
2023-05-14T22:25:22.173Z,14.02
2023-05-14T22:27:51.852Z,14.01
2023-05-14T22:30:21.711Z,14.03
2023-05-14T22:32:50.930Z,13.92
2023-05-14T22:35:20.107Z,13.87
2023-05-14T22:37:49.352Z,13.83
2023-05-14T22:40:18.772Z,13.80
2023-05-14T22:42:48.000Z,13.78
2023-05-14T22:45:17.531Z,13.79
2023-05-14T22:47:47.322Z,13.81
2023-05-14T22:50:17.175Z,13.77
2023-05-14T22:52:46.498Z,13.77
2023-05-14T22:55:15.521Z,13.79
2023-05-14T22:57:44.747Z,13.80
2023-05-14T23:00:15.968Z,13.78
2023-05-14T23:02:45.814Z,13.65
2023-05-14T23:05:15.494Z,13.54
2023-05-14T23:07:44.514Z,13.49
2023-05-14T23:10:13.694Z,13.42
2023-05-14T23:12:42.812Z,13.34
2023-05-14T23:15:12.087Z,13.30
2023-05-14T23:17:40.940Z,13.30
2023-05-14T23:20:19.518Z,13.42
2023-05-14T23:22:48.595Z,13.45
2023-05-14T23:25:17.615Z,13.38
2023-05-14T23:27:46.614Z,13.42
2023-05-14T23:30:15.778Z,13.51
2023-05-14T23:32:45.083Z,13.61
2023-05-14T23:35:14.883Z,13.64
2023-05-14T23:37:47.579Z,13.58
2023-05-14T23:40:17.701Z,13.55
2023-05-14T23:42:46.909Z,13.56
2023-05-14T23:45:16.209Z,13.56
2023-05-14T23:47:46.015Z,13.44
2023-05-14T23:50:14.874Z,13.35
2023-05-14T23:52:44.032Z,13.38
2023-05-14T23:55:13.859Z,13.43
2023-05-14T23:57:43.635Z,13.47
